Timeline UpdatesTrip UpdatesNews PostsPvt Posts♥♥Travel TipsAdmin PostsConv PostsFollowed PostsChat RequestsBlog PostsPNR Posts

Disclaimer
Search
 
 
Thu Dec 18, 2014 08:01:34 ISTHomeTrainsΣChainsAtlasPNRForumGalleryNewsFAQTripsMembersLoginFeedback
No Recent News for this Train
Other Trains in the News **new
Latest...
.
Sat Sep 13, 2014 (05:35PM)
⇐ Return Journey: Train# 58418

58417/Puri Gunupur Passenger (UnReserved)

Time-Table HAS CHANGED.
Sep 13 2014 (5:35PM)
Change Departure Station:
Change Arrival Station:
Post a Train Travel TipPost a Train Travel Tip **new
Post a Comment/Question/Picture/VideoPost a Comment/Question/Picture/Video
Pantry/Catering
✕ NO Pantry Car
✕ NO Catering
Loco/Rake Reversals
KUR/Khurda Road Junction (7);
RSA - Rake Sharing
Rake/Coach Composition
This train will run with 08 coaches i.e. Two Guard cum luggage vans, 05 General Second Class coaches and One Parcel Van.
Loco
News    PNR    Forum    Time-Table    Availability    Fare Chart    Map    Arr/Dep History    Trips    Gallery    ΣChains    X/O    Timeline    
Travel Time: 4h 10m    15 halts    Distance: 116 km    Avg Speed: 27 km/hr
Type: Passenger
Zone: ECoR/East Coast
Departs @ 16:00 (Avg 31m late)
Platform# 3
SMTWTFS
Palasa/PSA 
Arrives @ 20:10 (Avg 2m early)
Platform# ???
SMTWTFS
Gunupur/GNPR 

15 halts. 15 intermediate Stations between Palasa and Gunupur

Show ALL intermediate Stations  Show Old Time-Table

#TrkCodeStation NameX/OArrivesAvgDepartsAvgHaltPFDay#KmSpeedElevZoneAddress
1%==%PURIPuri (5)  -08:30 08:00+0--1-265.63712mECoRPuri, Odisha
2%==%MLTMalatipatpur (1)  08:42 08:12+108:44 08:13+12 1m11-258.33715mECoRPuri, Odisha
3%==%JKDPJankidaipur  08:48 08:18-08:49 08:19-1m--1-255.36013mECoRChandanpur, Odisha
4%==%SILSakhi Gopal (3)X  08:55 08:25+208:56 08:26+21m--1-249.26710mECoRPuri, Odisha
5%==%BRSTBir Purushottampur  09:01 08:31+609:02 08:32+61m--1-243.66712mECoRSatasankha, Odisha
6/==/JERD new halt!!  08:36-08:37-1m--1-239.226 ???
7%==/DEGDelang  09:13 08:43+909:14 08:44+91m--1-236.6449mECoRKhordha, Odisha
8/==/KASRKanas Road  09:19 08:49-09:20 08:50-1m--1-233.0429mECoRKhordha, Odisha
9/==/MWQMotari Halt  09:25 08:55+1109:26 08:56+111m--1-229.54612mECoRMotari, Odisha
10/==/HPGMHaripur GramX  09:33 09:03-09:34 09:04-1m--1-224.11222mECoRKhordha, Odisha
11/==/KURKhurda Road Junction (7)X09:50 09:17+910:10 09:35+2120 18m--1-221.55325mECoRKhordha, Odisha
12/==/ARGLArgul P.H.  10:16 09:41-10:17 09:42-1m--1-216.24024mECoRKhordha, Odisha
13/==/KPXRKaipadar Road  10:23 09:48+2410:24 09:49+251m--1-212.26822mECoRKaipada Road, Odisha
14/==/DLMHDhaulimuhanX  10:28 09:53-10:29 09:54-1m--1-207.74621mECoRKhordha, Odisha
15/==/TAPTapang  10:34 09:59+2710:35 10:00+271m--1-203.87215mECoRKhordha, Odisha
16/==/GLBAGolabai  10:39 10:04-10:40 10:05-1m--1-199.04813mECoRKhordha, Odisha
17/==/NKPNirakarpurX  10:45 10:10+2710:46 10:11+291m--1-195.07121mECoRNirakarpur, Odisha
18/==/BSDPBhusandpur  10:52 10:17+2910:53 10:18+291m--1-187.96620mECoRBhushandapur, Odisha
19/==/MKTPMuketashwarX  10:58 10:23-10:59 10:24-1m--1-182.45213mECoRKhordha, Odisha
20/==/KAPGKalupara Ghat  11:04 10:29+2711:05 10:30+271m--1-178.16710mECoRChandeswar, Odisha
21/==/KUUKuhuriX  11:11 10:36+3011:12 10:37+301m--1-171.46826mECoRKhordha, Odisha
22/==/GNGDGangadharpur  11:19 10:44+3111:20 10:45+331m--1-163.46222mECoRKhordha, Odisha
23/==/SLZSolari  11:25 10:50+3611:26 10:51+371m--1-158.25218mECoRSolari, Odisha
24/==/BALUBalugaon (3)X  11:35 11:00+3411:40 11:05+355m--1-150.47211mECoR752030, Odisha
25/==/CLKAChilka  11:46 11:11+4011:47 11:12+411m--1-143.27725mECoRBarkul, Odisha
26/==/KLJIKalijai  11:51 11:16-11:52 11:17-1m--1-138.03611mECoRGarh, Odisha
27/==/KITKhallikot (3)  11:57 11:25+4311:58 11:26+431m--1-133.27513mECoRKhallikot, Odisha
28/==/RBARambha  12:07 11:35+4612:08 11:36+491m--1-122.07414mECoRGanjam District, Odisha
29/==/HMAHummaX  12:17 11:45+5112:18 11:46+511m--1-110.97519mECoRGanjam District, Odisha
30/==/GAMGanjamO  12:23 11:51+5512:24 11:52+551m--1-104.7608mECoRGanjam, Odisha
31/==/CAPCChatrapur Court (2)  12:32 12:00-12:33 12:01-1m--1-96.71432mECoRChatrapur, Odisha
32/==/CAPChatrapur  12:37 12:05+4112:42 12:06+415 1m--1-95.83736mECoRChatrapur, Odisha
33/==/NRSPNarasimhapura  12:48 12:12-12:49 12:13-1m--1-92.110850mECoRGanjam, Odisha
34/==/JNPJagan NathapurX  12:54 12:18+1:0112:55 12:19+1:011m--1-83.14829mECoRBerhampur, Odisha
35/==/BAMBrahmapur (3)X  13:05 12:30+3313:15 12:35+3410 5m21-74.37127mECoRBerhampur, Odisha
36/==/GTAGolanthra  13:24 12:44+1:0813:25 12:45+1:091m--1-63.75328mECoRGanjam, Odisha
37/==/SLRDSurla RoadX  13:31 12:51+1:0913:33 12:52+1:102 1m--1-58.35118mECoRGanjam, Odisha
38/==/IPMIchchapuram  13:41 13:02+1:1013:42 13:03+1:111m--1-49.97921mECoRIchchapuram, Andhra Pradesh
39/==/JPIJhadupudi  13:51 13:12+1:1313:52 13:13+1:191m--1-38.17538mECoRSrikakulam, Andhra Pradesh
40/==/SPTSompeta (4)  13:57 13:18+4413:58 13:19+451m--1-31.97148mECoRKanchili, Andhra Pradesh
41/==/BAVBaruva  14:07 13:27+1:2214:08 13:28+1:221m--1-22.58117mECoRSrikakulam, Andhra Pradesh
42/==/MMSMandasa Road  14:15 13:35+1:2414:16 13:36+1:321m--1-13.16538mECoRSrikakulam, Andhra Pradesh
43/==/SUDVSummadeviX  14:23 13:42+1:3914:24 13:43+1:391m--1-6.5558mECoRSummadevi, Andhra Pradesh
44/==/PSAPalasa (3)»XO  15:25 15:10+2916:00+3135 50m310.06131mECoRKasibugga, Andhra Pradesh
45/==/PUNPundiX  16:12+3416:14+342m--112.25438mECoRSrikakulam, Andhra Pradesh
46/==/RMZRouthpuram HaltX  16:21-16:22-1m--118.63312mECoRSrikakulam, Andhra Pradesh
47/==/NWPNaupada Junction  16:35+3416:45 17:10+1710 35m--125.83913mECoRNuapada . ph.no. 08945-249728, Andhra Pradesh
48|--|TEKTekkali Halt  16:55 17:20-16:56 17:21-1m--132.33436mECoRTekkali, Andhra Pradesh
49|--|PDSNPeddasana  17:05 17:30-17:06 17:31-1m--137.44226mECoRNational Highway 5, Andhra Pradesh
50|--|TMBTemburu  17:19 17:44-17:20 17:45-1m--146.53276mECoRParalakhemundi, Andhra Pradesh
51|--|GVAGanguwada  17:28 17:53-17:29 17:54-1m--150.84578mECoRGanguwada, Andhra Pradesh
52|--|PHMPathapatnam  17:43 18:07-17:44 18:08-1m--160.62268mECoRSrikakulam District, Andhra Pradesh
53|--|PLHParalakhemundi (1)  18:00 18:20+018:02 18:22+02m1165.04460mECoRParalakhemundi, Odisha
54|--|SPRMSitapuram Halt  18:22 18:39-18:23 18:40-1m--177.53258mECoRParalakhemundi, Odisha
55|--|HBFHadobhangi Halt  18:31 18:48-18:32 18:49-1m--181.83968mECoRParalakhemundi, Odisha
56|--|KNGRKashinagar Halt  18:45 19:02-18:46 19:03-1m--190.23762mECoRKashinagar, Odisha
57|--|LRILihuri Halt  18:57 19:14-18:58 19:15-1m--197.03969mECoRAcross River Vamsadhara, Odisha
58|--|BSDRBansadhara Halt  19:09 19:26-19:10 19:27-1m--1104.13678mECoRBansadhara Halt Railway Station, Odisha
59|--|PLSGPalasingi  19:19 19:36-19:20 19:37-1m--1109.41287mECoRDistt Gajapati, Odisha
60|--|GNPRGunupur•  19:45 20:10-2---1115.8-92mECoRGunupur, Odisha
Scroll to Top
Scroll to Bottom


Go to Mobile site